Time;durP1;ratioP1;P1;durP2;ratioP2;P2;SDS_P1;SDS_P2;PMS_P1;PMS_P2;Temp;Humidity;BMP_temperature;BMP_pressure;BME280_temperature;BME280_humidity;BME280_pressure;Samples;Min_cycle;Max_cycle;Signal;HPM_P1;HPM_P2
2023/06/23 00:00:14;;;;;;;17.42;10.20;;;25.90;99.90;;;;;;5075794;28;20032;-73
2023/06/23 00:02:42;;;;;;;19.20;11.15;;;25.90;99.90;;;;;;5083960;28;20036;-73
2023/06/23 00:05:09;;;;;;;17.15;9.32;;;25.90;99.90;;;;;;5083692;28;20062;-73
2023/06/23 00:07:37;;;;;;;22.65;11.98;;;25.90;99.90;;;;;;5079734;28;20081;-73
2023/06/23 00:10:05;;;;;;;20.00;10.40;;;26.00;99.90;;;;;;5082876;28;20028;-73
2023/06/23 00:12:35;;;;;;;15.27;10.43;;;26.00;99.90;;;;;;5081770;28;20066;-73
2023/06/23 00:15:07;;;;;;;14.70;10.45;;;26.00;99.90;;;;;;5084727;28;20032;-73
2023/06/23 00:17:33;;;;;;;16.67;9.85;;;25.90;99.90;;;;;;5079827;28;20016;-73
2023/06/23 00:19:59;;;;;;;19.50;10.70;;;26.00;99.90;;;;;;5083270;28;20036;-73
2023/06/23 00:22:27;;;;;;;16.38;9.60;;;26.00;99.90;;;;;;5079161;28;20036;-73
2023/06/23 00:24:53;;;;;;;16.95;9.93;;;26.00;99.90;;;;;;5080409;28;20058;-73
2023/06/23 00:27:19;;;;;;;17.33;9.40;;;26.10;99.90;;;;;;5084832;28;20569;-73
2023/06/23 00:29:45;;;;;;;14.15;9.82;;;26.00;99.90;;;;;;5073992;28;20419;-73
2023/06/23 00:32:11;;;;;;;15.43;9.90;;;26.00;99.90;;;;;;5081126;28;20023;-73
2023/06/23 00:34:37;;;;;;;19.20;9.45;;;25.90;99.90;;;;;;5078242;28;20505;-73
2023/06/23 00:37:03;;;;;;;17.48;11.05;;;25.80;99.90;;;;;;5077142;28;20028;-73
2023/06/23 00:39:29;;;;;;;16.17;9.52;;;26.00;99.90;;;;;;5078050;28;20487;-73
2023/06/23 00:41:54;;;;;;;13.30;9.90;;;26.00;99.90;;;;;;5078878;28;20060;-73
2023/06/23 00:44:20;;;;;;;14.27;9.30;;;25.90;99.90;;;;;;5077803;28;20032;-73
2023/06/23 00:46:47;;;;;;;15.18;9.07;;;25.80;99.90;;;;;;5077834;28;20050;-73
2023/06/23 00:49:15;;;;;;;17.38;8.90;;;25.70;99.90;;;;;;5072852;28;20039;-73
2023/06/23 00:51:41;;;;;;;17.17;8.75;;;25.60;99.90;;;;;;5075674;28;20070;-73
2023/06/23 00:54:08;;;;;;;15.65;8.80;;;25.50;99.90;;;;;;5081019;28;20421;-73
2023/06/23 00:56:34;;;;;;;19.00;8.80;;;25.30;99.90;;;;;;5081023;28;20568;-73
2023/06/23 00:59:00;;;;;;;14.13;9.05;;;25.30;99.90;;;;;;5080214;28;20032;-73
2023/06/23 01:01:25;;;;;;;11.23;8.75;;;25.20;99.90;;;;;;5079449;28;20473;-73
2023/06/23 01:03:51;;;;;;;32.67;9.55;;;25.20;99.90;;;;;;5079444;28;20114;-73
2023/06/23 01:06:37;;;;;;;14.63;8.73;;;25.20;99.90;;;;;;5080040;28;20024;-73
2023/06/23 01:09:18;;;;;;;13.70;8.93;;;25.20;99.90;;;;;;5072617;28;20032;-72
2023/06/23 01:12:13;;;;;;;15.30;8.37;;;25.10;99.90;;;;;;5079894;28;20118;-73
2023/06/23 01:15:04;;;;;;;15.38;9.73;;;25.10;99.90;;;;;;5075511;28;20028;-73
2023/06/23 01:17:38;;;;;;;15.65;10.02;;;25.20;99.90;;;;;;5077156;28;20082;-73
2023/06/23 01:20:22;;;;;;;17.05;9.35;;;25.10;99.90;;;;;;5079053;28;20068;-73
2023/06/23 01:22:54;;;;;;;14.18;8.82;;;24.90;99.90;;;;;;5082470;28;20089;-73
2023/06/23 01:25:23;;;;;;;14.65;7.80;;;24.90;99.90;;;;;;5080308;28;20025;-73
2023/06/23 01:28:04;;;;;;;22.67;8.88;;;24.90;99.90;;;;;;5080536;28;20509;-73
2023/06/23 01:30:31;;;;;;;11.60;8.32;;;24.90;99.90;;;;;;5078858;28;20050;-73
2023/06/23 01:33:06;;;;;;;11.02;8.73;;;24.80;99.90;;;;;;5077508;28;20106;-73
2023/06/23 01:35:38;;;;;;;17.98;9.10;;;24.80;99.90;;;;;;5079335;28;20024;-73
2023/06/23 01:38:18;;;;;;;15.63;8.50;;;25.00;99.90;;;;;;5072866;28;20028;-73
2023/06/23 01:40:49;;;;;;;16.02;9.38;;;25.00;99.90;;;;;;5083070;28;20043;-73
2023/06/23 01:43:19;;;;;;;22.05;9.18;;;25.00;99.90;;;;;;5080503;28;20047;-73
2023/06/23 01:45:46;;;;;;;12.95;8.38;;;24.90;99.90;;;;;;5080319;28;20030;-73
2023/06/23 01:48:14;;;;;;;12.57;8.60;;;24.90;99.90;;;;;;5078991;28;22281;-73
2023/06/23 01:50:42;;;;;;;12.65;8.75;;;24.80;99.90;;;;;;5079799;28;20522;-73
2023/06/23 01:53:10;;;;;;;14.35;9.50;;;24.70;99.90;;;;;;5077033;28;20083;-73
2023/06/23 01:55:38;;;;;;;14.10;8.88;;;24.60;99.90;;;;;;5076409;28;20043;-73
2023/06/23 01:58:05;;;;;;;17.83;9.57;;;24.50;99.90;;;;;;5080531;28;20035;-73
2023/06/23 02:00:32;;;;;;;15.35;9.82;;;24.40;99.90;;;;;;5083082;28;20390;-73
2023/06/23 02:02:59;;;;;;;27.55;8.93;;;24.40;99.90;;;;;;5078198;28;20044;-73
2023/06/23 02:05:28;;;;;;;18.58;9.65;;;24.30;99.90;;;;;;5082976;28;20031;-73
2023/06/23 02:07:55;;;;;;;14.98;9.32;;;24.40;99.90;;;;;;5076213;28;20020;-73
2023/06/23 02:10:24;;;;;;;13.15;8.75;;;24.10;99.90;;;;;;5077595;28;20028;-73
2023/06/23 02:12:51;;;;;;;14.65;8.68;;;24.10;99.90;;;;;;5078053;28;20534;-73
2023/06/23 02:15:20;;;;;;;17.23;10.40;;;24.10;99.90;;;;;;5079316;28;20474;-73
2023/06/23 02:17:48;;;;;;;17.17;9.95;;;24.20;99.90;;;;;;5077233;28;20028;-73
2023/06/23 02:20:16;;;;;;;13.43;9.07;;;24.10;99.90;;;;;;5080532;28;20032;-73
2023/06/23 02:22:49;;;;;;;16.48;9.07;;;24.10;99.90;;;;;;5073809;28;20036;-73
2023/06/23 02:25:17;;;;;;;26.38;9.80;;;24.10;99.90;;;;;;5079449;28;20025;-73
2023/06/23 02:27:44;;;;;;;15.65;8.57;;;24.10;99.90;;;;;;5078171;28;20039;-73
2023/06/23 02:30:10;;;;;;;15.98;8.82;;;24.10;99.90;;;;;;5079513;28;20032;-73
2023/06/23 02:32:36;;;;;;;18.77;9.32;;;24.10;99.90;;;;;;5082567;28;20036;-73
2023/06/23 02:35:05;;;;;;;20.02;11.15;;;24.10;99.90;;;;;;5078224;28;20382;-73
2023/06/23 02:37:33;;;;;;;16.13;9.40;;;24.20;99.90;;;;;;5082139;28;20028;-73
2023/06/23 02:40:06;;;;;;;20.17;9.77;;;24.10;99.90;;;;;;5081509;28;20025;-73
2023/06/23 02:42:35;;;;;;;17.85;10.05;;;24.00;99.90;;;;;;5071631;28;20060;-73
2023/06/23 02:45:05;;;;;;;18.83;9.43;;;23.80;99.90;;;;;;5082687;28;20085;-73
2023/06/23 02:47:37;;;;;;;18.60;10.25;;;23.80;99.90;;;;;;5069653;28;20525;-73
2023/06/23 02:50:06;;;;;;;21.88;9.93;;;24.00;99.90;;;;;;5074130;28;20502;-73
2023/06/23 02:52:36;;;;;;;13.80;9.50;;;24.20;99.90;;;;;;5077765;28;20491;-72
2023/06/23 02:55:06;;;;;;;15.23;9.25;;;24.10;99.90;;;;;;5074364;28;20032;-73
2023/06/23 02:57:34;;;;;;;19.00;10.45;;;24.00;99.90;;;;;;5083375;28;20693;-73
2023/06/23 03:00:04;;;;;;;19.27;10.23;;;23.80;99.90;;;;;;5081534;28;20043;-73
2023/06/23 03:02:31;;;;;;;17.65;9.82;;;23.50;99.90;;;;;;5080156;28;20034;-72
2023/06/23 03:04:58;;;;;;;14.50;9.75;;;23.30;99.90;;;;;;5072594;28;20047;-72
2023/06/23 03:07:24;;;;;;;13.75;9.63;;;23.40;99.90;;;;;;5076374;28;20028;-71
2023/06/23 03:09:50;;;;;;;20.45;9.60;;;23.50;99.90;;;;;;5074493;28;20021;-72
2023/06/23 03:12:16;;;;;;;16.65;10.85;;;23.60;99.90;;;;;;5079920;28;20028;-72
2023/06/23 03:14:44;;;;;;;14.45;10.27;;;23.60;99.90;;;;;;5078114;28;20434;-72
2023/06/23 03:17:17;;;;;;;14.98;9.73;;;23.70;99.90;;;;;;5081130;28;20389;-72
2023/06/23 03:19:53;;;;;;;19.88;10.98;;;23.80;99.90;;;;;;5076777;28;20024;-72
2023/06/23 03:22:26;;;;;;;15.02;9.98;;;23.70;99.90;;;;;;5073763;28;20035;-71
2023/06/23 03:24:56;;;;;;;15.70;9.90;;;23.50;99.90;;;;;;5076159;28;20031;-71
2023/06/23 03:27:24;;;;;;;20.55;11.48;;;23.30;99.90;;;;;;5084715;28;20055;-72
2023/06/23 03:30:05;;;;;;;16.45;10.30;;;23.40;99.90;;;;;;5077414;28;20103;-72
2023/06/23 03:32:35;;;;;;;18.25;11.88;;;23.40;99.90;;;;;;5080296;28;20079;-72
2023/06/23 03:35:06;;;;;;;17.35;10.70;;;23.20;99.90;;;;;;5079755;28;20021;-72
2023/06/23 03:37:37;;;;;;;21.42;11.63;;;23.30;99.90;;;;;;5077893;28;20066;-71
2023/06/23 03:40:06;;;;;;;14.93;10.43;;;23.30;99.90;;;;;;5070903;28;20024;-72
2023/06/23 03:42:36;;;;;;;19.00;10.88;;;23.30;99.90;;;;;;5076040;28;20067;-72
2023/06/23 03:45:04;;;;;;;19.73;9.63;;;23.30;99.90;;;;;;5081225;28;20533;-71
2023/06/23 03:47:32;;;;;;;20.58;11.07;;;23.30;99.90;;;;;;5081601;28;20048;-71
2023/06/23 03:50:08;;;;;;;17.25;10.85;;;23.30;99.90;;;;;;5076635;28;20039;-72
2023/06/23 03:52:37;;;;;;;19.65;10.05;;;23.40;99.90;;;;;;5080464;28;20031;-72
2023/06/23 03:55:06;;;;;;;15.45;10.52;;;23.40;99.90;;;;;;5079930;28;20028;-72
2023/06/23 03:57:33;;;;;;;21.92;11.38;;;23.30;99.90;;;;;;5075101;28;20127;-72
2023/06/23 04:00:01;;;;;;;16.77;10.15;;;23.10;99.90;;;;;;5073553;28;20111;-72
2023/06/23 04:02:30;;;;;;;19.52;10.70;;;23.10;99.90;;;;;;5078526;28;20044;-71
2023/06/23 04:04:57;;;;;;;16.65;10.45;;;23.10;99.90;;;;;;5072297;28;20060;-72
2023/06/23 04:07:27;;;;;;;15.85;9.63;;;23.10;99.90;;;;;;5075184;28;20036;-72
2023/06/23 04:09:54;;;;;;;12.68;9.63;;;22.90;99.90;;;;;;5076126;28;20599;-71
2023/06/23 04:12:21;;;;;;;18.05;10.57;;;22.60;99.90;;;;;;5077120;28;20028;-72
2023/06/23 04:14:51;;;;;;;16.35;10.00;;;22.60;99.90;;;;;;5076943;28;20043;-71
2023/06/23 04:17:22;;;;;;;15.75;9.77;;;22.70;99.90;;;;;;5076290;28;20122;-72
2023/06/23 04:19:53;;;;;;;15.43;10.05;;;22.70;99.90;;;;;;5078874;28;20077;-72
2023/06/23 04:22:20;;;;;;;17.58;11.07;;;23.00;99.90;;;;;;5069919;28;20047;-71
2023/06/23 04:24:48;;;;;;;13.20;9.23;;;23.20;99.90;;;;;;5076606;28;20050;-71
2023/06/23 04:27:18;;;;;;;15.07;10.20;;;23.30;99.90;;;;;;5075151;28;20107;-72
2023/06/23 04:29:46;;;;;;;13.88;10.13;;;23.60;99.90;;;;;;5069818;28;20389;-72
2023/06/23 04:32:15;;;;;;;15.73;10.65;;;23.70;99.90;;;;;;5074875;28;20511;-72
2023/06/23 04:34:42;;;;;;;17.08;10.73;;;23.30;99.90;;;;;;5073979;28;20027;-71
2023/06/23 04:37:12;;;;;;;16.95;10.73;;;23.00;99.90;;;;;;5076798;28;20032;-71
2023/06/23 04:40:03;;;;;;;17.33;10.68;;;23.10;99.90;;;;;;5078809;28;20089;-72
2023/06/23 04:42:52;;;;;;;15.85;10.48;;;23.10;99.90;;;;;;5065518;28;20051;-71
2023/06/23 04:45:24;;;;;;;16.30;11.15;;;23.30;99.90;;;;;;5070882;28;20086;-72
2023/06/23 04:48:04;;;;;;;16.50;10.98;;;23.30;99.90;;;;;;5077875;28;20472;-72
2023/06/23 04:50:34;;;;;;;17.60;10.40;;;23.30;99.90;;;;;;5073119;28;20125;-72
2023/06/23 04:53:18;;;;;;;20.88;12.20;;;23.30;99.90;;;;;;5073366;28;21807;-71
2023/06/23 04:55:49;;;;;;;16.65;9.80;;;23.30;99.90;;;;;;5069951;28;20374;-72
2023/06/23 04:58:18;;;;;;;15.73;11.85;;;23.40;99.90;;;;;;5075246;28;20050;-71
2023/06/23 05:00:45;;;;;;;20.05;11.18;;;23.40;99.90;;;;;;5072490;28;20029;-72
2023/06/23 05:03:12;;;;;;;14.35;10.70;;;23.30;99.90;;;;;;5074552;28;20610;-72
2023/06/23 05:05:41;;;;;;;17.10;10.32;;;23.10;99.90;;;;;;5072390;28;20033;-72
2023/06/23 05:08:08;;;;;;;15.07;10.55;;;23.30;99.90;;;;;;5073748;28;20023;-72
2023/06/23 05:10:34;;;;;;;17.88;11.23;;;23.40;99.90;;;;;;5075642;28;20028;-72
2023/06/23 05:13:01;;;;;;;16.80;10.80;;;23.40;99.90;;;;;;5080143;28;20056;-72
2023/06/23 05:15:27;;;;;;;20.52;10.60;;;23.40;99.90;;;;;;5069676;28;20066;-72
2023/06/23 05:17:56;;;;;;;13.77;10.35;;;23.50;99.90;;;;;;5073524;28;20032;-71
2023/06/23 05:20:26;;;;;;;15.25;11.13;;;23.50;99.90;;;;;;5075229;28;20122;-72
2023/06/23 05:22:53;;;;;;;13.35;11.15;;;23.40;99.90;;;;;;5071098;28;20144;-71
2023/06/23 05:25:20;;;;;;;15.77;12.00;;;23.30;99.90;;;;;;5083267;28;20097;-72
2023/06/23 05:27:46;;;;;;;17.60;11.18;;;23.40;99.90;;;;;;5071251;28;20035;-72
2023/06/23 05:30:19;;;;;;;17.88;10.48;;;23.50;99.90;;;;;;5073206;28;20115;-71
2023/06/23 05:32:47;;;;;;;20.17;11.07;;;23.50;99.90;;;;;;5070666;28;20084;-71
2023/06/23 05:35:15;;;;;;;13.82;10.93;;;23.70;99.90;;;;;;5072171;28;20032;-72
2023/06/23 05:37:43;;;;;;;14.38;11.40;;;23.80;99.90;;;;;;5078360;28;20028;-72
2023/06/23 05:40:11;;;;;;;21.75;11.60;;;23.90;99.90;;;;;;5082650;28;20050;-70
2023/06/23 05:42:37;;;;;;;30.85;12.05;;;23.90;99.90;;;;;;5078592;28;20041;-70
2023/06/23 05:45:04;;;;;;;24.45;11.65;;;23.90;99.90;;;;;;5070549;28;20036;-72
2023/06/23 05:47:38;;;;;;;20.83;12.05;;;23.90;99.90;;;;;;5076121;28;20090;-73
2023/06/23 05:50:12;;;;;;;35.22;13.05;;;23.90;99.90;;;;;;5077169;28;20493;-72
2023/06/23 05:52:40;;;;;;;28.45;11.90;;;24.00;99.90;;;;;;5069067;28;20032;-72
2023/06/23 05:55:11;;;;;;;25.15;11.80;;;24.00;99.90;;;;;;5073799;28;20032;-72
2023/06/23 05:57:38;;;;;;;18.77;12.52;;;24.00;99.90;;;;;;5074153;28;20076;-72
2023/06/23 06:00:11;;;;;;;13.75;9.65;;;24.10;99.90;;;;;;5076384;28;20074;-72
2023/06/23 06:02:40;;;;;;;15.65;11.48;;;24.10;99.90;;;;;;5072215;28;20097;-72
2023/06/23 06:05:10;;;;;;;14.98;11.65;;;24.20;99.90;;;;;;5080641;28;20036;-72
2023/06/23 06:07:36;;;;;;;22.73;10.57;;;24.40;99.90;;;;;;5068660;28;20028;-73
2023/06/23 06:10:04;;;;;;;16.52;11.32;;;24.70;99.90;;;;;;5070750;28;20016;-72
2023/06/23 06:12:33;;;;;;;14.43;11.02;;;24.70;99.90;;;;;;5077050;28;20032;-72
2023/06/23 06:15:01;;;;;;;20.70;11.45;;;24.80;99.90;;;;;;5078409;28;20420;-72
2023/06/23 06:17:29;;;;;;;19.02;11.45;;;24.90;99.90;;;;;;5075985;28;20111;-72
2023/06/23 06:19:59;;;;;;;15.13;11.82;;;24.90;99.90;;;;;;5077062;28;20029;-72
2023/06/23 06:22:26;;;;;;;16.58;11.27;;;25.00;99.90;;;;;;5078932;28;20039;-72
2023/06/23 06:24:53;;;;;;;20.63;12.32;;;25.10;99.90;;;;;;5074041;28;20121;-72
2023/06/23 06:27:21;;;;;;;18.77;10.88;;;25.10;99.90;;;;;;5075779;28;20055;-72
2023/06/23 06:29:49;;;;;;;18.85;12.38;;;25.20;99.90;;;;;;5075496;28;20032;-72
2023/06/23 06:32:17;;;;;;;16.25;11.38;;;25.20;99.90;;;;;;5069752;28;20036;-72
2023/06/23 06:34:45;;;;;;;20.17;12.38;;;25.30;99.90;;;;;;5071940;28;20039;-72
2023/06/23 06:37:11;;;;;;;16.75;11.30;;;25.30;99.90;;;;;;5074368;28;20067;-73
2023/06/23 06:39:39;;;;;;;21.45;12.55;;;25.40;99.90;;;;;;5071775;28;20405;-72
2023/06/23 06:42:05;;;;;;;20.27;12.15;;;25.60;99.90;;;;;;5079772;28;20028;-72
2023/06/23 06:44:30;;;;;;;24.48;12.60;;;25.60;99.90;;;;;;5076351;28;20066;-72
2023/06/23 06:46:57;;;;;;;18.55;11.88;;;25.50;99.90;;;;;;5070372;28;20052;-72
2023/06/23 06:49:25;;;;;;;20.52;13.18;;;25.50;99.90;;;;;;5073609;28;20048;-72
2023/06/23 06:51:52;;;;;;;19.35;12.55;;;25.50;99.90;;;;;;5080852;28;20138;-72
2023/06/23 06:54:17;;;;;;;22.65;11.70;;;25.50;99.90;;;;;;5078304;28;20097;-72
2023/06/23 06:56:44;;;;;;;20.60;13.15;;;25.50;99.90;;;;;;5082297;28;20451;-72
2023/06/23 06:59:10;;;;;;;27.60;15.15;;;25.70;99.90;;;;;;5076473;28;20063;-72
2023/06/23 07:01:37;;;;;;;23.05;13.70;;;25.80;99.90;;;;;;5081882;28;20028;-73
2023/06/23 07:04:05;;;;;;;27.42;13.20;;;26.00;99.90;;;;;;5076853;28;20040;-72
2023/06/23 07:06:31;;;;;;;18.52;13.55;;;26.00;99.90;;;;;;5080445;28;20808;-73
2023/06/23 07:08:57;;;;;;;25.85;13.73;;;26.10;99.90;;;;;;5082046;28;20479;-74
2023/06/23 07:11:22;;;;;;;22.98;12.50;;;26.30;99.90;;;;;;5083500;28;20056;-73
2023/06/23 07:13:48;;;;;;;22.10;13.13;;;26.50;99.90;;;;;;5073928;28;20591;-72
2023/06/23 07:16:14;;;;;;;18.10;11.63;;;26.60;99.90;;;;;;5077047;28;20085;-73
2023/06/23 07:18:39;;;;;;;19.65;11.25;;;26.60;99.90;;;;;;5077208;28;20020;-72
2023/06/23 07:21:05;;;;;;;23.50;11.82;;;26.80;99.90;;;;;;5073895;28;20035;-73
2023/06/23 07:23:31;;;;;;;17.67;11.15;;;27.10;99.90;;;;;;5078151;28;20051;-74
2023/06/23 07:25:57;;;;;;;27.60;11.13;;;27.20;99.90;;;;;;5077609;28;20032;-73
2023/06/23 07:28:23;;;;;;;18.63;10.95;;;27.30;99.90;;;;;;5073698;28;20036;-73
2023/06/23 07:30:49;;;;;;;33.65;11.27;;;27.40;99.90;;;;;;5073164;28;20062;-74
2023/06/23 07:33:15;;;;;;;18.55;11.25;;;27.20;99.90;;;;;;5072996;28;20028;-73
2023/06/23 07:35:40;;;;;;;21.35;11.30;;;27.10;99.50;;;;;;5070780;28;20059;-73
2023/06/23 07:38:06;;;;;;;22.17;11.50;;;26.90;99.90;;;;;;5077310;28;20024;-73
2023/06/23 07:40:33;;;;;;;20.98;11.60;;;26.60;99.90;;;;;;5075503;28;20028;-73
2023/06/23 07:42:59;;;;;;;20.60;10.18;;;26.80;99.90;;;;;;5075505;28;20079;-73
2023/06/23 07:45:24;;;;;;;22.50;10.60;;;26.80;99.90;;;;;;5077331;28;20117;-73
2023/06/23 07:47:50;;;;;;;18.02;10.63;;;27.10;99.90;;;;;;5082454;28;20024;-75
2023/06/23 07:50:16;;;;;;;21.60;11.02;;;27.50;99.90;;;;;;5082778;28;20047;-73
2023/06/23 07:52:43;;;;;;;24.05;8.93;;;28.20;99.20;;;;;;5085967;28;20582;-73
2023/06/23 07:55:09;;;;;;;18.95;8.07;;;27.70;98.80;;;;;;5081227;28;20169;-74
2023/06/23 07:57:35;;;;;;;14.35;7.43;;;27.30;99.00;;;;;;5075355;28;20573;-75
2023/06/23 08:00:01;;;;;;;13.13;6.22;;;27.10;98.20;;;;;;5078122;28;20034;-74
2023/06/23 08:02:26;;;;;;;17.65;5.25;;;27.10;98.00;;;;;;5077939;28;20044;-74
2023/06/23 08:04:52;;;;;;;11.98;4.88;;;27.00;97.20;;;;;;5076330;28;20450;-74
2023/06/23 08:07:17;;;;;;;12.32;4.32;;;26.80;96.60;;;;;;5077405;28;20859;-74
2023/06/23 08:09:44;;;;;;;9.23;4.15;;;27.00;96.10;;;;;;5077283;28;20027;-74
2023/06/23 08:12:10;;;;;;;9.48;3.65;;;27.10;95.70;;;;;;5078132;28;20117;-74
2023/06/23 08:14:35;;;;;;;7.93;4.00;;;27.00;95.80;;;;;;5078813;28;20086;-73
2023/06/23 08:17:02;;;;;;;14.02;3.60;;;26.80;96.10;;;;;;5079440;28;20032;-73
2023/06/23 08:19:29;;;;;;;9.02;4.03;;;26.70;95.80;;;;;;5074353;28;20174;-73
2023/06/23 08:21:55;;;;;;;7.72;3.47;;;27.00;96.40;;;;;;5076125;28;20017;-73
2023/06/23 08:24:21;;;;;;;8.98;3.60;;;26.80;95.30;;;;;;5077700;28;20036;-73
2023/06/23 08:26:47;;;;;;;9.98;3.42;;;26.80;95.70;;;;;;5075510;28;20075;-73
2023/06/23 08:29:12;;;;;;;7.65;3.63;;;26.70;95.80;;;;;;5073866;28;20027;-73
2023/06/23 08:31:38;;;;;;;9.70;3.28;;;26.50;94.90;;;;;;5076820;28;20032;-73
2023/06/23 08:34:04;;;;;;;9.50;3.35;;;26.60;95.90;;;;;;5075747;28;20028;-74
2023/06/23 08:36:29;;;;;;;7.97;3.22;;;26.60;95.10;;;;;;5074479;28;20117;-73
2023/06/23 08:38:55;;;;;;;8.52;3.75;;;26.60;94.70;;;;;;5080023;28;20042;-74
2023/06/23 08:41:21;;;;;;;10.40;3.67;;;26.90;95.10;;;;;;5080299;28;20367;-73
2023/06/23 08:43:48;;;;;;;9.35;3.17;;;27.40;96.40;;;;;;5076323;28;20040;-73
2023/06/23 08:46:15;;;;;;;9.05;3.58;;;27.50;95.40;;;;;;5080905;28;20032;-74
2023/06/23 08:48:46;;;;;;;8.77;3.33;;;27.40;94.20;;;;;;5078017;28;20385;-73
2023/06/23 08:51:15;;;;;;;6.35;3.22;;;27.40;94.90;;;;;;5080345;28;20466;-73
2023/06/23 08:53:42;;;;;;;11.73;4.03;;;27.40;94.50;;;;;;5074435;28;20029;-74
2023/06/23 08:56:07;;;;;;;10.00;3.65;;;27.20;94.40;;;;;;5074112;28;20059;-73
2023/06/23 08:58:33;;;;;;;5.78;3.05;;;26.80;94.50;;;;;;5078093;28;20024;-73
2023/06/23 09:00:59;;;;;;;9.80;3.47;;;26.80;94.80;;;;;;5074987;28;20037;-73
2023/06/23 09:03:26;;;;;;;10.73;3.63;;;26.80;95.10;;;;;;5077811;28;20371;-74
2023/06/23 09:05:52;;;;;;;7.57;4.10;;;26.70;94.80;;;;;;5080931;28;20039;-74
2023/06/23 09:08:17;;;;;;;6.75;3.28;;;26.80;95.90;;;;;;5076739;28;20036;-74
2023/06/23 09:10:43;;;;;;;9.00;3.90;;;26.80;95.60;;;;;;5075452;28;20036;-73
2023/06/23 09:13:29;;;;;;;7.10;2.90;;;26.50;95.70;;;;;;5072718;28;20052;-73
2023/06/23 09:15:56;;;;;;;10.43;3.83;;;26.50;95.00;;;;;;5076395;28;20726;-73
2023/06/23 09:18:22;;;;;;;9.98;3.65;;;26.40;94.40;;;;;;5075252;28;20070;-73
2023/06/23 09:20:49;;;;;;;6.72;3.53;;;26.30;94.40;;;;;;5076024;28;20020;-73
2023/06/23 09:23:20;;;;;;;9.13;3.70;;;26.40;94.50;;;;;;5078435;28;20421;-73
2023/06/23 09:25:51;;;;;;;8.70;3.90;;;26.50;94.30;;;;;;5077397;28;20028;-73
2023/06/23 09:28:21;;;;;;;7.13;3.13;;;26.80;95.10;;;;;;5079925;28;20028;-74
2023/06/23 09:30:47;;;;;;;12.30;3.88;;;26.70;95.70;;;;;;5075918;28;20039;-74
2023/06/23 09:33:13;;;;;;;9.45;3.40;;;26.70;94.60;;;;;;5076891;28;20029;-74
2023/06/23 09:35:51;;;;;;;12.90;3.35;;;26.60;95.70;;;;;;5079262;28;20048;-74
2023/06/23 09:38:19;;;;;;;9.82;3.72;;;26.60;96.00;;;;;;5083158;28;20035;-74
2023/06/23 09:40:45;;;;;;;14.18;3.45;;;26.40;94.40;;;;;;5077729;28;20028;-74
2023/06/23 09:43:12;;;;;;;10.48;3.85;;;26.70;95.50;;;;;;5082446;28;20546;-73
2023/06/23 09:45:38;;;;;;;9.20;3.65;;;26.80;96.10;;;;;;5081194;28;20071;-73
2023/06/23 09:48:04;;;;;;;12.88;3.33;;;26.90;96.40;;;;;;5072901;28;20056;-73
2023/06/23 09:50:30;;;;;;;9.80;4.18;;;26.60;95.80;;;;;;5078952;28;20044;-74
2023/06/23 09:53:05;;;;;;;6.43;3.58;;;26.50;94.70;;;;;;5072865;28;20074;-74
2023/06/23 09:55:31;;;;;;;5.72;3.08;;;26.30;94.50;;;;;;5078477;28;20032;-73
2023/06/23 09:58:02;;;;;;;8.25;3.90;;;26.30;95.30;;;;;;5076233;28;20137;-73
2023/06/23 10:00:32;;;;;;;10.32;3.83;;;26.40;95.30;;;;;;5077642;28;20086;-73
2023/06/23 10:03:02;;;;;;;9.00;4.22;;;26.40;95.10;;;;;;5070578;28;20417;-73
2023/06/23 10:05:38;;;;;;;14.85;4.70;;;26.30;95.30;;;;;;5078703;28;20039;-74
2023/06/23 10:08:13;;;;;;;8.02;3.38;;;26.10;96.20;;;;;;5072372;28;20440;-73
2023/06/23 10:10:45;;;;;;;9.20;3.50;;;26.30;96.20;;;;;;5074403;28;20055;-73
2023/06/23 10:13:11;;;;;;;8.27;3.60;;;26.30;94.70;;;;;;5073800;28;20091;-73
2023/06/23 10:15:40;;;;;;;9.07;3.63;;;26.30;95.30;;;;;;5069109;28;20123;-73
2023/06/23 10:18:06;;;;;;;6.68;3.47;;;26.50;95.80;;;;;;5070425;28;20028;-74
2023/06/23 10:20:32;;;;;;;11.48;4.43;;;26.70;96.00;;;;;;5081842;28;20370;-73
2023/06/23 10:22:58;;;;;;;6.72;3.15;;;26.70;96.60;;;;;;5076352;28;20046;-73
2023/06/23 10:25:26;;;;;;;10.32;3.88;;;26.70;96.00;;;;;;5075287;28;20040;-73
2023/06/23 10:27:56;;;;;;;8.32;3.88;;;26.90;96.90;;;;;;5077091;28;20389;-73
2023/06/23 10:30:22;;;;;;;8.45;3.30;;;26.90;97.20;;;;;;5073570;28;20059;-73
2023/06/23 10:32:53;;;;;;;7.95;3.72;;;26.90;95.20;;;;;;5082755;28;20028;-74
2023/06/23 10:35:22;;;;;;;9.50;3.50;;;26.60;96.20;;;;;;5073333;28;20493;-74
2023/06/23 10:38:04;;;;;;;9.48;3.42;;;26.60;96.50;;;;;;5078349;28;20096;-74
2023/06/23 10:40:37;;;;;;;9.43;3.38;;;26.70;96.70;;;;;;5071309;28;20024;-74
2023/06/23 10:43:04;;;;;;;9.35;3.42;;;26.70;95.40;;;;;;5083228;28;20080;-74
2023/06/23 10:45:31;;;;;;;9.70;3.13;;;27.00;95.60;;;;;;5074366;28;20039;-74
2023/06/23 10:47:57;;;;;;;6.55;3.65;;;27.20;95.70;;;;;;5081371;28;20046;-74
2023/06/23 10:50:24;;;;;;;5.55;3.22;;;27.20;95.90;;;;;;5086002;28;20135;-74
2023/06/23 10:52:49;;;;;;;7.68;3.47;;;27.30;94.70;;;;;;5082609;28;20036;-74
2023/06/23 10:55:35;;;;;;;7.93;2.80;;;27.40;94.40;;;;;;5078179;28;20027;-74
2023/06/23 10:58:17;;;;;;;8.05;3.00;;;27.80;94.60;;;;;;5080244;28;20052;-74
2023/06/23 11:01:00;;;;;;;5.88;2.80;;;27.90;94.50;;;;;;5075503;28;20040;-74
2023/06/23 11:03:35;;;;;;;6.85;2.60;;;27.90;93.50;;;;;;5080006;28;20040;-74
2023/06/23 11:06:09;;;;;;;8.48;2.30;;;27.90;93.10;;;;;;5074398;28;20174;-74
2023/06/23 11:08:39;;;;;;;7.72;2.63;;;27.80;92.80;;;;;;5072953;28;20063;-74
2023/06/23 11:11:10;;;;;;;3.90;2.13;;;27.90;92.20;;;;;;5077072;28;20024;-74
2023/06/23 11:13:51;;;;;;;9.60;2.80;;;27.80;92.50;;;;;;5069548;28;20028;-74
2023/06/23 11:16:18;;;;;;;4.90;1.88;;;27.90;93.00;;;;;;5075483;28;20028;-73
2023/06/23 11:19:02;;;;;;;6.93;2.40;;;28.00;92.00;;;;;;5078705;28;20028;-74
2023/06/23 11:22:07;;;;;;;6.00;1.85;;;27.90;91.60;;;;;;5080019;28;20432;-73
2023/06/23 11:24:33;;;;;;;5.43;1.95;;;27.90;91.70;;;;;;5075876;28;20043;-73
2023/06/23 11:27:03;;;;;;;5.95;2.45;;;28.40;91.90;;;;;;5079834;28;20028;-74
2023/06/23 11:29:30;;;;;;;8.10;1.80;;;28.50;91.30;;;;;;5082497;28;20118;-73
2023/06/23 11:32:05;;;;;;;3.83;2.03;;;28.50;91.40;;;;;;5070588;28;20048;-74
2023/06/23 11:34:47;;;;;;;5.68;2.15;;;28.60;91.60;;;;;;5073612;28;20032;-74
2023/06/23 11:37:14;;;;;;;4.97;2.40;;;28.60;91.20;;;;;;5075390;28;20550;-73
2023/06/23 11:39:40;;;;;;;4.32;2.15;;;28.80;91.20;;;;;;5078614;28;20028;-72
2023/06/23 11:42:06;;;;;;;4.45;1.75;;;28.80;91.00;;;;;;5082861;28;20119;-74
2023/06/23 11:44:32;;;;;;;6.05;1.65;;;28.80;91.10;;;;;;5079636;28;20144;-72
2023/06/23 11:46:59;;;;;;;3.40;1.70;;;28.60;90.20;;;;;;5077995;28;20497;-73
2023/06/23 11:49:24;;;;;;;4.00;1.80;;;28.70;91.20;;;;;;5084578;28;20106;-74
2023/06/23 11:51:51;;;;;;;3.70;2.08;;;29.00;92.00;;;;;;5071220;28;20035;-74
2023/06/23 11:54:16;;;;;;;5.70;2.08;;;29.10;90.90;;;;;;5073427;28;20023;-73
2023/06/23 11:56:42;;;;;;;7.47;1.90;;;29.00;90.10;;;;;;5074031;28;20401;-74
2023/06/23 11:59:10;;;;;;;4.82;2.05;;;29.30;90.70;;;;;;5070450;28;20060;-74
2023/06/23 12:01:36;;;;;;;6.10;2.47;;;29.50;89.70;;;;;;5070573;28;20028;-74
2023/06/23 12:04:05;;;;;;;5.65;1.83;;;29.70;90.70;;;;;;5076248;28;20062;-74
2023/06/23 12:06:35;;;;;;;3.67;1.50;;;29.50;89.60;;;;;;5074616;28;20128;-74
2023/06/23 12:09:02;;;;;;;3.83;1.52;;;29.90;90.20;;;;;;5076133;28;20032;-73
2023/06/23 12:11:29;;;;;;;4.15;2.08;;;30.10;87.90;;;;;;5074498;28;20032;-74
2023/06/23 12:13:57;;;;;;;2.72;1.55;;;30.00;88.80;;;;;;5074072;28;20120;-74
2023/06/23 12:16:22;;;;;;;3.08;1.33;;;29.90;88.20;;;;;;5073753;28;20039;-74
2023/06/23 12:18:50;;;;;;;4.50;1.35;;;30.10;88.30;;;;;;5075722;28;20401;-74
2023/06/23 12:21:19;;;;;;;5.82;1.50;;;30.40;88.00;;;;;;5072782;28;20149;-74
2023/06/23 12:23:45;;;;;;;8.65;1.63;;;30.50;87.20;;;;;;5070033;28;20474;-75
2023/06/23 12:26:13;;;;;;;5.13;1.58;;;30.80;89.70;;;;;;5074740;28;20039;-74
2023/06/23 12:28:39;;;;;;;3.85;1.00;;;30.50;86.70;;;;;;5069333;28;20028;-74
2023/06/23 12:31:06;;;;;;;10.70;1.20;;;30.50;86.70;;;;;;5074409;28;20025;-74
2023/06/23 12:33:33;;;;;;;3.78;1.40;;;30.50;86.50;;;;;;5069537;28;20566;-74
2023/06/23 12:36:14;;;;;;;5.97;1.70;;;30.50;86.30;;;;;;5078744;28;20031;-74
2023/06/23 12:38:40;;;;;;;2.55;1.20;;;30.80;86.70;;;;;;5073228;28;20020;-73
2023/06/23 12:41:19;;;;;;;5.60;1.70;;;30.80;85.50;;;;;;5076722;28;20362;-74
2023/06/23 12:43:46;;;;;;;3.67;1.20;;;30.80;84.60;;;;;;5075333;28;20123;-73